Time;durP1;ratioP1;P1;durP2;ratioP2;P2;SDS_P1;SDS_P2;PMS_P1;PMS_P2;Temp;Humidity;BMP_temperature;BMP_pressure;BME280_temperature;BME280_humidity;BME280_pressure;Samples;Min_cycle;Max_cycle;Signal;HPM_P1;HPM_P2
2022/04/18 00:02:20;;;;;;;8.98;4.90;;;7.40;54.80;;;;;;5074032;28;20032;-74
2022/04/18 00:04:45;;;;;;;7.80;4.95;;;7.30;54.90;;;;;;5075163;28;20025;-75
2022/04/18 00:07:11;;;;;;;10.68;5.72;;;7.30;55.10;;;;;;5074930;28;20419;-79
2022/04/18 00:09:37;;;;;;;10.43;5.05;;;7.20;55.30;;;;;;5075187;28;20033;-76
2022/04/18 00:12:04;;;;;;;11.15;5.00;;;7.20;55.60;;;;;;5057188;28;20028;-77
2022/04/18 00:14:30;;;;;;;8.25;5.18;;;7.10;55.60;;;;;;5074642;28;20109;-75
2022/04/18 00:16:56;;;;;;;10.25;4.90;;;7.10;55.60;;;;;;5074908;28;20052;-75
2022/04/18 00:19:23;;;;;;;7.13;5.15;;;7.10;55.70;;;;;;5074271;28;20036;-74
2022/04/18 00:22:07;;;;;;;9.40;5.53;;;7.10;55.90;;;;;;5074787;28;20488;-75
2022/04/18 00:24:33;;;;;;;6.05;4.68;;;7.00;55.70;;;;;;5073835;28;20044;-73
2022/04/18 00:27:00;;;;;;;7.15;5.13;;;7.00;56.00;;;;;;5074693;28;20040;-75
2022/04/18 00:29:26;;;;;;;8.23;4.93;;;7.00;56.10;;;;;;5074180;28;20117;-75
2022/04/18 00:31:52;;;;;;;8.85;4.65;;;7.00;56.20;;;;;;5074379;28;20104;-75
2022/04/18 00:34:18;;;;;;;9.43;5.38;;;6.90;56.30;;;;;;5073913;28;20028;-75
2022/04/18 00:36:45;;;;;;;8.73;5.25;;;6.90;56.20;;;;;;5074237;28;20032;-75
2022/04/18 00:39:11;;;;;;;6.78;4.90;;;6.80;56.30;;;;;;5056507;28;20020;-75
2022/04/18 00:41:37;;;;;;;8.77;5.25;;;6.80;56.40;;;;;;5055929;28;20376;-75
2022/04/18 00:44:03;;;;;;;6.95;5.13;;;6.80;56.70;;;;;;5073608;28;20036;-73
2022/04/18 00:46:28;;;;;;;7.43;5.53;;;6.70;56.80;;;;;;5073091;28;20052;-74
2022/04/18 00:48:55;;;;;;;9.70;4.95;;;6.70;56.90;;;;;;5073931;28;20033;-74
2022/04/18 00:51:24;;;;;;;6.35;4.60;;;6.70;57.00;;;;;;5072708;28;20040;-74
2022/04/18 00:53:53;;;;;;;9.85;4.95;;;6.70;57.00;;;;;;5073581;28;20108;-74
2022/04/18 00:56:20;;;;;;;8.10;4.95;;;6.60;57.20;;;;;;5072794;28;20020;-74
2022/04/18 00:58:48;;;;;;;9.07;4.97;;;6.60;57.30;;;;;;5073181;28;20031;-74
2022/04/18 01:01:15;;;;;;;7.38;4.72;;;6.60;57.30;;;;;;5073011;28;20560;-73
2022/04/18 01:03:42;;;;;;;6.97;4.60;;;6.60;57.50;;;;;;5073310;28;20046;-74
2022/04/18 01:06:08;;;;;;;7.40;5.32;;;6.60;57.40;;;;;;5073230;28;20029;-73
2022/04/18 01:08:37;;;;;;;9.70;5.35;;;6.50;57.20;;;;;;5072577;28;20051;-73
2022/04/18 01:11:05;;;;;;;7.10;4.72;;;6.50;57.40;;;;;;5073157;28;20033;-73
2022/04/18 01:13:39;;;;;;;7.45;4.85;;;6.50;57.50;;;;;;5072366;28;20029;-73
2022/04/18 01:16:04;;;;;;;7.13;4.95;;;6.40;57.60;;;;;;5075397;28;20024;-73
2022/04/18 01:18:30;;;;;;;7.18;5.15;;;6.40;58.10;;;;;;5091581;28;20035;-73
2022/04/18 01:20:55;;;;;;;10.88;4.85;;;6.30;58.10;;;;;;5093229;28;20028;-73
2022/04/18 01:23:21;;;;;;;12.75;5.43;;;6.30;58.20;;;;;;5092264;28;20448;-74
2022/04/18 01:31:15;;;;;;;6.93;4.68;;;6.20;58.70;;;;;;5092730;28;20407;-72
2022/04/18 01:33:41;;;;;;;10.00;5.10;;;6.10;58.70;;;;;;5092341;28;20025;-73
2022/04/18 01:36:07;;;;;;;6.72;4.88;;;6.10;59.40;;;;;;5093007;28;20073;-72
2022/04/18 01:38:33;;;;;;;8.82;4.80;;;6.10;59.00;;;;;;5092219;28;20048;-73
2022/04/18 01:40:59;;;;;;;8.77;4.93;;;6.00;59.00;;;;;;5092706;28;20113;-72
2022/04/18 01:43:24;;;;;;;6.70;4.88;;;6.00;59.00;;;;;;5091687;28;20063;-72
2022/04/18 01:45:50;;;;;;;9.82;4.85;;;6.00;59.20;;;;;;5074495;28;20028;-72
2022/04/18 01:48:15;;;;;;;7.78;5.07;;;6.00;59.30;;;;;;5074541;28;20063;-72
2022/04/18 01:50:41;;;;;;;7.25;4.78;;;6.00;59.40;;;;;;5092083;28;20020;-72
2022/04/18 01:53:07;;;;;;;8.65;4.78;;;5.90;59.50;;;;;;5092619;28;20038;-72
2022/04/18 01:55:33;;;;;;;7.97;5.43;;;5.90;59.60;;;;;;5091999;28;20461;-73
2022/04/18 01:57:58;;;;;;;7.22;5.32;;;5.80;59.80;;;;;;5092440;28;20028;-72
2022/04/18 02:00:24;;;;;;;7.82;4.78;;;5.80;59.90;;;;;;5091381;28;20044;-72
2022/04/18 02:02:50;;;;;;;7.10;4.82;;;5.80;60.00;;;;;;5092385;28;20467;-72
2022/04/18 02:05:15;;;;;;;9.98;4.90;;;5.80;60.10;;;;;;5092412;28;20131;-72
2022/04/18 02:07:41;;;;;;;7.13;4.63;;;5.70;60.30;;;;;;5091408;28;20028;-73
2022/04/18 02:10:07;;;;;;;7.53;4.88;;;5.70;60.40;;;;;;5091951;28;20059;-72
2022/04/18 02:12:33;;;;;;;6.88;5.28;;;5.60;60.50;;;;;;5091613;28;20028;-73
2022/04/18 02:14:59;;;;;;;7.53;5.30;;;5.60;60.80;;;;;;5092155;28;20028;-73
2022/04/18 02:17:25;;;;;;;8.63;5.32;;;5.60;61.00;;;;;;5091537;28;20028;-73
2022/04/18 02:19:50;;;;;;;6.72;5.25;;;5.60;61.00;;;;;;5092081;28;20410;-71
2022/04/18 02:22:16;;;;;;;6.72;4.75;;;5.60;61.00;;;;;;5091808;28;20034;-72
2022/04/18 02:24:41;;;;;;;7.50;4.60;;;5.60;61.70;;;;;;5073158;28;20392;-72
2022/04/18 02:27:09;;;;;;;7.25;4.93;;;5.60;61.10;;;;;;5091718;28;20039;-71
2022/04/18 02:29:35;;;;;;;7.88;5.00;;;5.60;61.20;;;;;;5091092;28;20465;-72
2022/04/18 02:34:45;;;;;;;8.88;4.63;;;5.50;61.20;;;;;;5091174;28;20042;-72
2022/04/18 02:37:11;;;;;;;7.75;4.72;;;5.50;61.20;;;;;;5092217;28;20115;-72
2022/04/18 02:39:37;;;;;;;9.18;5.18;;;5.50;61.30;;;;;;5073142;28;20417;-73
2022/04/18 02:42:03;;;;;;;7.00;4.97;;;5.50;61.50;;;;;;5091883;28;20046;-72
2022/04/18 02:44:30;;;;;;;7.15;4.95;;;5.50;61.40;;;;;;5091170;28;20064;-72
2022/04/18 02:46:55;;;;;;;8.95;5.25;;;5.50;61.50;;;;;;5091662;28;20194;-72
2022/04/18 02:49:21;;;;;;;9.77;5.30;;;5.50;61.60;;;;;;5092061;28;20491;-72
2022/04/18 02:51:47;;;;;;;7.72;4.85;;;5.40;61.80;;;;;;5091081;28;20032;-73
2022/04/18 02:54:13;;;;;;;7.68;4.70;;;5.40;62.00;;;;;;5092113;28;20048;-72
2022/04/18 02:56:38;;;;;;;7.82;5.15;;;5.40;62.10;;;;;;5094345;28;20027;-72
2022/04/18 02:59:04;;;;;;;6.40;4.65;;;5.40;62.00;;;;;;5095970;28;20069;-71
2022/04/18 03:01:30;;;;;;;7.78;5.13;;;5.40;62.10;;;;;;5095532;28;20071;-73
2022/04/18 03:03:55;;;;;;;8.68;5.38;;;5.40;62.20;;;;;;5095737;28;20095;-73
2022/04/18 03:06:21;;;;;;;7.53;5.10;;;5.40;62.20;;;;;;5095540;28;20028;-73
2022/04/18 03:08:47;;;;;;;6.80;4.78;;;5.40;62.40;;;;;;5095240;28;20028;-72
2022/04/18 03:11:13;;;;;;;9.90;5.28;;;5.40;62.10;;;;;;5095443;28;20446;-73
2022/04/18 03:13:44;;;;;;;8.63;5.18;;;5.40;62.30;;;;;;5085352;28;20058;-73
2022/04/18 03:16:10;;;;;;;7.03;4.82;;;5.30;62.40;;;;;;5075268;28;20469;-73
2022/04/18 03:18:36;;;;;;;8.80;4.55;;;5.30;62.40;;;;;;5083563;28;20055;-72
2022/04/18 03:21:03;;;;;;;9.40;5.10;;;5.30;62.60;;;;;;5095253;28;20511;-72
2022/04/18 03:23:29;;;;;;;6.38;4.60;;;5.30;62.80;;;;;;5094841;28;20107;-73
2022/04/18 03:25:55;;;;;;;6.90;4.78;;;5.30;62.70;;;;;;5095067;28;20193;-73
2022/04/18 03:28:20;;;;;;;8.27;5.35;;;5.30;62.70;;;;;;5095342;28;20055;-72
2022/04/18 03:30:46;;;;;;;7.80;4.43;;;5.30;62.70;;;;;;5094675;28;20239;-73
2022/04/18 03:33:12;;;;;;;7.03;5.03;;;5.20;62.70;;;;;;5095312;28;20111;-73
2022/04/18 03:35:37;;;;;;;6.15;4.72;;;5.20;62.70;;;;;;5094567;28;20059;-72
2022/04/18 03:40:47;;;;;;;7.72;4.50;;;5.20;62.90;;;;;;5094260;28;20043;-72
2022/04/18 03:43:13;;;;;;;7.10;4.28;;;5.10;63.30;;;;;;5095073;28;20032;-72
2022/04/18 03:45:39;;;;;;;5.78;4.38;;;5.10;62.90;;;;;;5094397;28;20161;-73
2022/04/18 03:48:05;;;;;;;9.02;5.05;;;5.10;63.10;;;;;;5095073;28;20089;-73
2022/04/18 03:50:30;;;;;;;5.95;4.22;;;5.10;63.30;;;;;;5094340;28;20031;-73
2022/04/18 03:52:56;;;;;;;8.25;4.70;;;5.10;63.20;;;;;;5076625;28;20389;-72
2022/04/18 03:55:22;;;;;;;9.15;4.82;;;5.00;63.30;;;;;;5094861;28;20040;-73
2022/04/18 03:57:47;;;;;;;5.78;4.43;;;5.00;63.50;;;;;;5076017;28;20035;-73
2022/04/18 04:00:13;;;;;;;6.60;4.88;;;5.00;63.30;;;;;;5094965;28;20062;-73
2022/04/18 04:02:39;;;;;;;6.47;4.53;;;5.00;63.50;;;;;;5094042;28;20035;-74
2022/04/18 04:05:05;;;;;;;6.50;4.75;;;5.00;63.60;;;;;;5094786;28;20104;-73
2022/04/18 04:07:31;;;;;;;6.30;4.80;;;5.00;63.60;;;;;;5093309;28;20469;-73
2022/04/18 04:09:56;;;;;;;7.25;4.88;;;5.00;63.50;;;;;;5094594;28;20052;-73
2022/04/18 04:12:26;;;;;;;7.65;4.30;;;5.00;63.60;;;;;;5094448;28;20111;-73
2022/04/18 04:14:55;;;;;;;7.38;5.10;;;5.00;63.50;;;;;;5093970;28;20103;-74
2022/04/18 04:17:26;;;;;;;5.68;4.40;;;5.00;63.40;;;;;;5094541;28;20034;-73
2022/04/18 04:19:51;;;;;;;6.20;4.70;;;5.10;63.90;;;;;;5093816;28;20111;-74
2022/04/18 04:22:17;;;;;;;7.53;4.57;;;5.10;63.50;;;;;;5094314;28;20452;-73
2022/04/18 04:24:43;;;;;;;7.68;5.22;;;5.10;63.40;;;;;;5093460;28;20032;-73
2022/04/18 04:27:09;;;;;;;6.93;4.70;;;5.10;63.50;;;;;;5094409;28;20039;-73
2022/04/18 04:29:34;;;;;;;5.75;4.57;;;5.10;63.20;;;;;;5093766;28;20024;-73
2022/04/18 04:32:19;;;;;;;7.45;4.95;;;5.10;63.20;;;;;;5094205;28;20579;-74
2022/04/18 04:34:44;;;;;;;7.07;5.00;;;5.20;63.20;;;;;;5075439;28;20089;-73
2022/04/18 04:37:10;;;;;;;7.68;4.97;;;5.20;63.10;;;;;;5094194;28;20023;-73
2022/04/18 04:39:35;;;;;;;6.63;4.60;;;5.20;63.00;;;;;;5092251;28;20418;-73
2022/04/18 04:42:01;;;;;;;5.53;4.20;;;5.30;62.60;;;;;;5090631;28;20461;-73
2022/04/18 04:44:26;;;;;;;7.00;5.15;;;5.30;62.80;;;;;;5094321;28;20121;-73
2022/04/18 04:46:52;;;;;;;6.70;4.75;;;5.40;62.60;;;;;;5071990;28;20024;-73
2022/04/18 04:49:18;;;;;;;9.65;4.90;;;5.50;62.30;;;;;;5093953;28;20028;-73
2022/04/18 04:51:43;;;;;;;6.43;4.53;;;5.60;62.10;;;;;;5092848;28;20020;-73
2022/04/18 04:54:09;;;;;;;7.65;4.72;;;5.70;61.80;;;;;;5075497;28;20523;-73
2022/04/18 04:56:34;;;;;;;5.57;4.60;;;5.80;61.60;;;;;;5093134;28;20020;-74
2022/04/18 04:59:01;;;;;;;7.93;4.78;;;5.90;61.20;;;;;;5093737;28;20044;-73
2022/04/18 05:01:27;;;;;;;7.85;5.35;;;5.90;60.90;;;;;;5093688;28;20113;-73
2022/04/18 05:03:52;;;;;;;9.98;5.15;;;5.90;60.80;;;;;;5092688;28;20035;-73
2022/04/18 05:06:18;;;;;;;6.88;4.18;;;6.00;60.80;;;;;;5093598;28;20093;-73
2022/04/18 05:08:44;;;;;;;8.18;4.78;;;6.10;60.90;;;;;;5074734;28;20035;-73
2022/04/18 05:11:10;;;;;;;8.05;5.03;;;6.10;60.40;;;;;;5093554;28;20024;-73
2022/04/18 05:13:54;;;;;;;6.35;4.47;;;6.10;60.50;;;;;;5092535;28;20024;-74
2022/04/18 05:16:20;;;;;;;6.80;4.95;;;6.20;60.40;;;;;;5093400;28;20024;-73
2022/04/18 05:18:46;;;;;;;6.07;4.95;;;6.20;60.00;;;;;;5091541;28;20028;-74
2022/04/18 05:21:12;;;;;;;8.50;4.90;;;6.30;59.90;;;;;;5075083;28;20032;-74
2022/04/18 05:23:38;;;;;;;7.10;4.78;;;6.40;59.30;;;;;;5092616;28;20107;-74
2022/04/18 05:26:03;;;;;;;6.55;4.60;;;6.40;59.30;;;;;;5074838;28;20043;-74
2022/04/18 05:28:29;;;;;;;8.10;4.20;;;6.40;59.20;;;;;;5093329;28;20028;-74
2022/04/18 05:30:54;;;;;;;8.00;4.85;;;6.50;59.10;;;;;;5092360;28;20530;-72
2022/04/18 05:33:21;;;;;;;7.22;5.05;;;6.50;58.80;;;;;;5092753;28;20024;-73
2022/04/18 05:35:47;;;;;;;5.65;4.35;;;6.50;58.80;;;;;;5092471;28;20040;-74
2022/04/18 05:38:14;;;;;;;5.88;4.30;;;6.50;58.50;;;;;;5092874;28;20035;-73
2022/04/18 05:40:40;;;;;;;6.85;4.32;;;6.60;58.10;;;;;;5092228;28;20034;-74
2022/04/18 05:43:08;;;;;;;5.82;4.63;;;6.60;58.10;;;;;;5092807;28;20024;-74
2022/04/18 05:45:34;;;;;;;6.78;4.72;;;6.70;58.10;;;;;;5092746;28;20039;-74
2022/04/18 05:48:00;;;;;;;8.32;4.80;;;6.80;57.90;;;;;;5090087;28;20492;-74
2022/04/18 05:50:26;;;;;;;9.38;4.80;;;6.90;57.60;;;;;;5091953;28;20024;-74
2022/04/18 05:52:51;;;;;;;6.30;3.85;;;6.90;57.00;;;;;;5091595;28;20059;-74
2022/04/18 05:55:17;;;;;;;5.82;4.45;;;7.00;56.40;;;;;;5092111;28;20032;-74
2022/04/18 05:57:42;;;;;;;5.95;4.43;;;7.10;56.40;;;;;;5091432;28;20384;-74
2022/04/18 06:00:08;;;;;;;5.97;4.05;;;7.10;55.70;;;;;;5091862;28;20044;-74
2022/04/18 06:02:34;;;;;;;7.47;4.13;;;7.10;56.10;;;;;;5073730;28;20024;-74
2022/04/18 06:05:00;;;;;;;6.95;4.43;;;7.10;55.90;;;;;;5088650;28;20060;-74
2022/04/18 06:07:25;;;;;;;8.15;3.78;;;7.10;56.20;;;;;;5077303;28;20032;-74
2022/04/18 06:09:51;;;;;;;6.13;4.30;;;7.10;56.40;;;;;;5054564;28;20048;-73
2022/04/18 06:12:20;;;;;;;5.57;3.92;;;7.20;56.30;;;;;;5072178;28;20101;-74
2022/04/18 06:14:46;;;;;;;6.15;4.15;;;7.20;55.60;;;;;;5072315;28;20029;-73
2022/04/18 06:17:12;;;;;;;6.47;4.55;;;7.30;55.40;;;;;;5071763;28;20031;-74
2022/04/18 06:19:37;;;;;;;4.60;3.65;;;7.30;55.50;;;;;;5072547;28;20073;-74
2022/04/18 06:22:04;;;;;;;5.55;3.60;;;7.40;55.70;;;;;;5091212;28;20024;-72
2022/04/18 06:24:29;;;;;;;8.45;4.10;;;7.50;55.60;;;;;;5071713;28;20112;-74
2022/04/18 06:26:55;;;;;;;5.55;3.58;;;7.50;55.30;;;;;;5071397;28;20154;-75
2022/04/18 06:29:20;;;;;;;6.95;3.53;;;7.60;54.90;;;;;;5071523;28;20111;-73
2022/04/18 06:31:46;;;;;;;5.40;3.80;;;7.60;54.60;;;;;;5071130;28;20024;-74
2022/04/18 06:34:12;;;;;;;7.22;3.70;;;7.70;54.40;;;;;;5081192;28;20491;-74
2022/04/18 06:36:39;;;;;;;6.15;3.55;;;7.70;54.00;;;;;;5091464;28;20067;-74
2022/04/18 06:39:05;;;;;;;6.57;3.95;;;7.80;53.80;;;;;;5090664;28;20077;-73
2022/04/18 06:41:30;;;;;;;5.82;3.70;;;7.80;53.70;;;;;;5091434;28;20016;-74
2022/04/18 06:43:56;;;;;;;4.80;3.83;;;7.80;53.70;;;;;;5090660;28;20023;-73
2022/04/18 06:46:22;;;;;;;5.43;3.70;;;7.90;53.60;;;;;;5080564;28;20056;-74
2022/04/18 06:48:47;;;;;;;5.38;3.70;;;7.90;53.40;;;;;;5070951;28;20025;-74
2022/04/18 06:51:13;;;;;;;6.32;4.45;;;7.90;53.50;;;;;;5071376;28;20029;-74
2022/04/18 06:53:39;;;;;;;6.82;4.18;;;7.90;53.30;;;;;;5071453;28;20146;-74
2022/04/18 06:58:49;;;;;;;5.63;3.70;;;7.90;53.20;;;;;;5070638;28;20121;-73
2022/04/18 07:01:14;;;;;;;7.22;3.65;;;8.00;53.30;;;;;;5071222;28;20036;-73
2022/04/18 07:03:40;;;;;;;5.32;3.67;;;8.00;53.20;;;;;;5071467;28;20025;-74
2022/04/18 07:06:06;;;;;;;6.95;3.60;;;8.00;53.30;;;;;;5070734;28;20457;-74
2022/04/18 07:08:31;;;;;;;4.38;3.35;;;8.10;53.30;;;;;;5071182;28;20029;-73
2022/04/18 07:10:57;;;;;;;5.38;4.00;;;8.20;53.40;;;;;;5070637;28;20021;-73
2022/04/18 07:13:23;;;;;;;7.00;3.85;;;8.20;53.10;;;;;;5054410;28;20119;-74
2022/04/18 07:15:49;;;;;;;4.97;3.47;;;8.20;53.00;;;;;;5090919;28;20103;-73
2022/04/18 07:18:14;;;;;;;5.43;3.58;;;8.20;52.80;;;;;;5091382;28;20024;-74
2022/04/18 07:20:41;;;;;;;6.28;3.70;;;8.20;53.00;;;;;;5091647;28;20028;-75
2022/04/18 07:23:07;;;;;;;5.55;3.88;;;8.20;53.50;;;;;;5090776;28;20043;-75
2022/04/18 07:25:32;;;;;;;6.05;3.67;;;8.10;53.20;;;;;;5091246;28;20028;-75
2022/04/18 07:27:58;;;;;;;5.18;3.67;;;8.10;53.60;;;;;;5090722;28;20060;-72
2022/04/18 07:30:29;;;;;;;5.43;3.38;;;8.10;53.80;;;;;;5091537;28;20028;-75
2022/04/18 07:32:55;;;;;;;5.30;3.67;;;8.10;54.00;;;;;;5090907;28;20143;-73
2022/04/18 07:35:21;;;;;;;4.72;3.22;;;8.10;53.80;;;;;;5091082;28;20040;-73
2022/04/18 07:40:31;;;;;;;8.57;3.13;;;8.10;53.80;;;;;;5091255;28;20100;-73
2022/04/18 07:42:56;;;;;;;4.28;3.25;;;8.10;53.90;;;;;;5093540;28;20446;-73
2022/04/18 07:45:22;;;;;;;4.80;3.50;;;8.00;53.80;;;;;;5094937;28;20028;-73
2022/04/18 07:47:50;;;;;;;6.15;3.35;;;8.10;54.10;;;;;;5094468;28;20060;-73
2022/04/18 07:50:16;;;;;;;6.53;3.13;;;8.10;54.20;;;;;;5095333;28;20042;-74
2022/04/18 07:52:41;;;;;;;6.30;3.38;;;8.10;54.10;;;;;;5094765;28;20024;-74
2022/04/18 07:55:07;;;;;;;5.82;3.85;;;8.10;54.00;;;;;;5094059;28;20353;-74
2022/04/18 07:57:33;;;;;;;8.93;3.58;;;8.10;53.90;;;;;;5094544;28;20520;-74
2022/04/18 07:59:58;;;;;;;4.65;2.92;;;8.10;54.00;;;;;;5093989;28;20062;-74
2022/04/18 08:02:24;;;;;;;4.10;3.33;;;8.10;53.90;;;;;;5095042;28;20031;-74
2022/04/18 08:04:50;;;;;;;5.70;3.35;;;8.10;54.20;;;;;;5094472;28;20040;-73
2022/04/18 08:07:16;;;;;;;8.68;3.65;;;8.10;54.40;;;;;;5076650;28;20039;-73
2022/04/18 08:09:41;;;;;;;4.47;3.40;;;8.10;54.30;;;;;;5095243;28;20115;-75
2022/04/18 08:12:11;;;;;;;4.78;3.20;;;8.10;54.30;;;;;;5076030;28;20453;-74
2022/04/18 08:14:37;;;;;;;6.55;3.30;;;8.10;54.50;;;;;;5092830;28;20468;-74
2022/04/18 08:17:04;;;;;;;6.20;3.70;;;8.10;54.20;;;;;;5093755;28;20413;-74
2022/04/18 08:19:29;;;;;;;7.22;3.53;;;8.10;54.50;;;;;;5094428;28;20449;-74
2022/04/18 08:21:55;;;;;;;6.82;3.63;;;8.10;54.60;;;;;;5075555;28;20035;-74
2022/04/18 08:24:22;;;;;;;4.68;3.28;;;8.10;54.60;;;;;;5094218;28;20046;-73
2022/04/18 08:26:48;;;;;;;5.43;3.75;;;8.10;54.80;;;;;;5094044;28;20059;-78
2022/04/18 08:29:14;;;;;;;4.72;3.28;;;8.10;55.00;;;;;;5093979;28;20034;-73
2022/04/18 08:31:40;;;;;;;6.53;3.67;;;8.10;55.10;;;;;;5094250;28;20387;-74
2022/04/18 08:34:05;;;;;;;6.53;3.33;;;8.10;55.40;;;;;;5093596;28;20413;-74
2022/04/18 08:36:33;;;;;;;6.45;3.90;;;8.10;56.10;;;;;;5094049;28;20043;-74
2022/04/18 08:38:59;;;;;;;7.43;4.03;;;8.10;57.00;;;;;;5090360;28;20042;-76
2022/04/18 08:41:34;;;;;;;7.00;3.63;;;8.20;58.00;;;;;;5094096;28;20050;-74
2022/04/18 08:44:02;;;;;;;7.28;3.78;;;8.20;60.30;;;;;;5092910;28;20445;-74
2022/04/18 08:46:28;;;;;;;7.32;4.07;;;8.20;60.60;;;;;;5075630;28;20078;-74
2022/04/18 08:54:26;;;;;;;5.82;3.55;;;8.30;61.80;;;;;;5092347;28;20067;-73
2022/04/18 08:56:52;;;;;;;6.25;3.50;;;8.30;62.00;;;;;;5093022;28;20093;-74
2022/04/18 08:59:17;;;;;;;6.95;3.90;;;8.30;61.60;;;;;;5075365;28;20032;-73
2022/04/18 09:01:50;;;;;;;6.40;4.22;;;8.30;62.10;;;;;;5075310;28;20048;-73
2022/04/18 09:04:20;;;;;;;8.15;4.30;;;8.30;60.60;;;;;;5093472;28;20118;-74
2022/04/18 09:06:45;;;;;;;6.32;4.05;;;8.30;60.30;;;;;;5093457;28;20149;-73
2022/04/18 09:09:11;;;;;;;9.15;4.07;;;8.30;59.80;;;;;;5092393;28;20024;-74
2022/04/18 09:11:37;;;;;;;8.07;4.10;;;8.30;59.80;;;;;;5093147;28;20028;-74
2022/04/18 09:14:14;;;;;;;6.57;3.60;;;8.30;59.50;;;;;;5067053;28;20134;-73
2022/04/18 09:16:41;;;;;;;6.63;3.65;;;8.30;58.80;;;;;;5073099;28;20017;-74
2022/04/18 09:19:12;;;;;;;5.95;3.53;;;8.30;58.40;;;;;;5072285;28;20037;-75
2022/04/18 09:21:42;;;;;;;8.15;3.85;;;8.30;58.80;;;;;;5072986;28;20028;-74
2022/04/18 09:24:07;;;;;;;5.47;3.28;;;8.30;59.20;;;;;;5054126;28;20469;-74
2022/04/18 09:26:33;;;;;;;7.55;3.65;;;8.40;58.70;;;;;;5072974;28;20071;-74
2022/04/18 09:29:06;;;;;;;6.32;3.63;;;8.40;59.40;;;;;;5072242;28;20024;-72
2022/04/18 09:31:41;;;;;;;7.88;4.30;;;8.40;59.10;;;;;;5072788;28;20048;-73
2022/04/18 09:34:07;;;;;;;7.32;4.78;;;8.40;59.20;;;;;;5072109;28;20066;-73
2022/04/18 09:36:33;;;;;;;8.27;4.63;;;8.40;59.50;;;;;;5073075;28;20029;-75
2022/04/18 09:38:59;;;;;;;7.65;3.50;;;8.40;60.10;;;;;;5071722;28;20031;-74
2022/04/18 09:41:33;;;;;;;7.18;3.78;;;8.40;60.30;;;;;;5072483;28;20115;-74
2022/04/18 09:43:59;;;;;;;5.68;4.40;;;8.50;61.60;;;;;;5071690;28;20485;-75
2022/04/18 09:46:26;;;;;;;8.13;4.40;;;8.50;62.00;;;;;;5072310;28;20107;-74
2022/04/18 09:48:59;;;;;;;5.10;4.40;;;8.60;62.60;;;;;;5072618;28;20020;-74
2022/04/18 09:51:27;;;;;;;5.65;3.90;;;8.60;63.30;;;;;;5074271;28;20020;-75
2022/04/18 09:53:54;;;;;;;8.00;4.72;;;8.60;63.60;;;;;;5092600;28;20024;-75
2022/04/18 09:59:06;;;;;;;6.88;4.47;;;8.60;65.80;;;;;;5091616;28;20050;-74
2022/04/18 10:01:33;;;;;;;6.45;4.53;;;8.60;67.10;;;;;;5092797;28;20052;-74
2022/04/18 10:04:18;;;;;;;5.80;4.13;;;8.60;67.50;;;;;;5090489;28;20024;-75
2022/04/18 10:06:45;;;;;;;6.50;4.55;;;8.80;69.10;;;;;;5073325;28;20129;-74
2022/04/18 10:09:13;;;;;;;6.25;4.10;;;8.90;68.80;;;;;;5091453;28;20102;-74
2022/04/18 10:11:39;;;;;;;6.13;4.22;;;9.10;69.10;;;;;;5091820;28;20440;-75
2022/04/18 10:14:06;;;;;;;6.65;4.45;;;9.40;69.10;;;;;;5082051;28;20024;-75
2022/04/18 10:16:32;;;;;;;6.47;4.20;;;9.50;67.80;;;;;;5071644;28;20082;-76
2022/04/18 10:19:05;;;;;;;5.72;4.00;;;9.80;67.30;;;;;;5070823;28;20028;-76
2022/04/18 10:21:31;;;;;;;6.55;4.45;;;9.90;66.10;;;;;;5071256;28;20452;-74
2022/04/18 10:24:15;;;;;;;8.45;4.85;;;10.10;65.90;;;;;;5071164;28;20029;-74
2022/04/18 10:27:08;;;;;;;7.30;4.10;;;10.30;64.80;;;;;;5071831;28;20453;-75
2022/04/18 10:29:44;;;;;;;6.10;4.03;;;10.40;64.30;;;;;;5071945;28;20173;-75
2022/04/18 10:32:10;;;;;;;5.82;3.90;;;10.60;63.50;;;;;;5055631;28;20381;-75
2022/04/18 10:34:37;;;;;;;5.57;4.10;;;10.60;62.40;;;;;;5071751;28;20032;-75
2022/04/18 10:37:04;;;;;;;6.03;3.70;;;10.80;61.20;;;;;;5081597;28;20028;-75
2022/04/18 10:39:38;;;;;;;5.63;3.90;;;11.00;59.80;;;;;;5091849;28;20028;-75
2022/04/18 10:42:21;;;;;;;6.18;4.03;;;10.90;59.20;;;;;;5091359;28;20024;-75
2022/04/18 10:45:06;;;;;;;7.07;3.80;;;11.00;60.30;;;;;;5091488;28;20036;-75
2022/04/18 10:48:04;;;;;;;4.65;3.65;;;11.10;60.20;;;;;;5073329;28;20123;-74
2022/04/18 10:50:35;;;;;;;6.15;4.18;;;11.10;59.80;;;;;;5091918;28;20096;-75
2022/04/18 10:53:08;;;;;;;5.55;4.15;;;11.10;58.70;;;;;;5090884;28;20043;-78
2022/04/18 10:55:35;;;;;;;5.57;3.70;;;10.90;57.20;;;;;;5091687;28;20020;-75
2022/04/18 10:58:20;;;;;;;5.22;3.55;;;10.90;58.00;;;;;;5091378;28;20058;-75
2022/04/18 11:00:52;;;;;;;7.32;4.13;;;10.90;57.90;;;;;;5091970;28;20044;-75
2022/04/18 11:03:36;;;;;;;6.45;3.78;;;10.90;59.80;;;;;;5072602;28;20358;-75
2022/04/18 11:06:15;;;;;;;8.00;4.47;;;10.60;59.70;;;;;;5090820;28;20064;-74
2022/04/18 11:08:41;;;;;;;6.97;4.13;;;10.70;61.70;;;;;;5091360;28;20476;-74
2022/04/18 11:11:17;;;;;;;5.65;3.72;;;10.70;60.50;;;;;;5090395;28;20074;-76
2022/04/18 11:13:46;;;;;;;6.45;4.20;;;10.60;60.30;;;;;;5091061;28;20019;-75
2022/04/18 11:16:27;;;;;;;6.57;4.43;;;10.50;60.20;;;;;;5087939;28;20024;-75
2022/04/18 11:19:14;;;;;;;6.53;4.15;;;10.30;60.20;;;;;;5074357;28;20020;-76
2022/04/18 11:21:58;;;;;;;7.25;4.47;;;10.20;61.20;;;;;;5093692;28;20107;-76
2022/04/18 11:24:43;;;;;;;7.22;4.68;;;10.20;62.10;;;;;;5093861;28;20491;-76
2022/04/18 11:27:16;;;;;;;6.32;4.45;;;10.30;62.10;;;;;;5091050;28;20391;-75
2022/04/18 11:29:52;;;;;;;9.00;4.38;;;10.20;61.60;;;;;;5094070;28;20107;-77
2022/04/18 11:32:29;;;;;;;7.40;4.28;;;10.10;62.00;;;;;;5093633;28;20477;-76
2022/04/18 11:34:57;;;;;;;6.30;4.20;;;9.90;62.40;;;;;;5090670;28;20024;-75
2022/04/18 11:37:27;;;;;;;7.63;4.95;;;9.90;63.70;;;;;;5093841;28;20032;-75
2022/04/18 11:39:58;;;;;;;6.13;4.18;;;9.90;63.60;;;;;;5094715;28;20093;-74
2022/04/18 11:42:26;;;;;;;7.43;4.25;;;10.00;64.50;;;;;;5094302;28;20028;-75
2022/04/18 11:44:54;;;;;;;6.00;4.22;;;10.20;64.70;;;;;;5094543;28;20507;-75
2022/04/18 11:47:26;;;;;;;5.32;4.05;;;10.30;64.40;;;;;;5093948;28;20840;-75
2022/04/18 11:49:58;;;;;;;6.40;4.30;;;10.40;63.40;;;;;;5094976;28;20077;-75
2022/04/18 11:52:25;;;;;;;8.45;4.35;;;10.60;62.50;;;;;;5094088;28;20110;-75
2022/04/18 11:55:02;;;;;;;9.85;4.03;;;10.70;62.00;;;;;;5076470;28;20451;-74
2022/04/18 11:57:30;;;;;;;5.65;4.25;;;10.70;61.30;;;;;;5094525;28;20036;-74
2022/04/18 11:59:56;;;;;;;7.20;4.45;;;10.80;60.90;;;;;;5076204;28;20040;-75
2022/04/18 12:08:00;;;;;;;6.47;4.30;;;10.90;61.40;;;;;;5094356;28;19949;-75
2022/04/18 12:10:28;;;;;;;6.57;4.20;;;10.90;61.20;;;;;;5075210;28;20115;-75
2022/04/18 12:12:54;;;;;;;6.88;3.97;;;11.00;60.60;;;;;;5094493;28;20024;-75
2022/04/18 12:15:25;;;;;;;7.07;4.68;;;11.00;61.60;;;;;;5074117;28;20343;-75
2022/04/18 12:17:56;;;;;;;6.20;4.15;;;11.00;61.40;;;;;;5074194;28;20025;-75
2022/04/18 12:20:25;;;;;;;7.30;4.00;;;11.10;61.20;;;;;;5073436;28;20028;-74
2022/04/18 12:22:58;;;;;;;6.32;4.32;;;11.10;61.20;;;;;;5074041;28;20032;-75
2022/04/18 12:25:27;;;;;;;6.47;3.97;;;11.10;61.40;;;;;;5073480;28;20033;-74
2022/04/18 12:27:54;;;;;;;6.43;4.28;;;11.20;61.70;;;;;;5073475;28;20390;-74
2022/04/18 12:30:20;;;;;;;6.40;3.67;;;11.20;60.30;;;;;;5073016;28;20107;-74
2022/04/18 12:32:49;;;;;;;5.93;3.10;;;11.30;57.10;;;;;;5055886;28;20123;-74
2022/04/18 12:35:37;;;;;;;5.95;3.60;;;11.30;50.80;;;;;;5073670;28;20338;-74
2022/04/18 12:38:04;;;;;;;6.28;3.63;;;11.40;47.70;;;;;;5073318;28;20033;-76
2022/04/18 12:40:34;;;;;;;5.57;3.58;;;11.50;50.20;;;;;;5073393;28;20035;-73
2022/04/18 12:43:05;;;;;;;4.95;3.47;;;11.60;52.50;;;;;;5073861;28;20107;-73
2022/04/18 12:45:55;;;;;;;6.17;3.67;;;11.70;50.80;;;;;;5073602;28;20393;-73
2022/04/18 12:48:23;;;;;;;5.32;2.90;;;11.70;48.90;;;;;;5073126;28;20055;-74
2022/04/18 12:50:49;;;;;;;5.38;3.70;;;11.80;48.80;;;;;;5073612;28;20025;-73
2022/04/18 12:53:15;;;;;;;7.82;3.70;;;11.80;51.00;;;;;;5072903;28;20020;-74
2022/04/18 12:55:41;;;;;;;6.47;3.63;;;11.90;50.20;;;;;;5073474;28;20032;-74
2022/04/18 12:58:18;;;;;;;5.28;3.60;;;12.00;50.10;;;;;;5087070;28;20031;-73
2022/04/18 13:00:48;;;;;;;5.78;3.05;;;12.00;50.30;;;;;;5093417;28;20052;-75
2022/04/18 13:03:14;;;;;;;6.38;3.78;;;12.10;49.40;;;;;;5092981;28;20032;-74
2022/04/18 13:05:46;;;;;;;4.88;3.72;;;12.10;48.10;;;;;;5093079;28;20032;-74
2022/04/18 13:08:16;;;;;;;4.57;3.10;;;12.10;48.50;;;;;;5092770;28;20028;-74
2022/04/18 13:10:43;;;;;;;5.00;3.30;;;12.10;48.90;;;;;;5093406;28;20106;-73
2022/04/18 13:13:19;;;;;;;6.57;3.45;;;12.20;48.90;;;;;;5073395;28;20379;-75
2022/04/18 13:15:46;;;;;;;5.38;3.63;;;12.30;48.60;;;;;;5071837;28;20136;-75
2022/04/18 13:18:21;;;;;;;3.53;3.13;;;12.20;48.90;;;;;;5072826;28;20032;-74
2022/04/18 13:20:47;;;;;;;5.97;3.70;;;12.20;48.20;;;;;;5055281;28;20428;-75
2022/04/18 13:23:13;;;;;;;6.75;4.25;;;12.20;48.50;;;;;;5072381;28;20032;-75
2022/04/18 13:25:39;;;;;;;5.63;3.67;;;12.10;48.70;;;;;;5073083;28;20380;-74
2022/04/18 13:28:07;;;;;;;7.90;3.22;;;12.00;49.50;;;;;;5054487;28;20028;-74
2022/04/18 13:30:35;;;;;;;6.45;3.90;;;12.00;50.20;;;;;;5073037;28;20029;-74